Time;durP1;ratioP1;P1;durP2;ratioP2;P2;SDS_P1;SDS_P2;PMS_P1;PMS_P2;Temp;Humidity;BMP_temperature;BMP_pressure;BME280_temperature;BME280_humidity;BME280_pressure;Samples;Min_cycle;Max_cycle;Signal;HPM_P1;HPM_P2
2022/05/31 00:02:20;;;;;;;6.60;2.60;;;;;15.40;97353.40;;;;109028;1268;41546;-67
2022/05/31 00:04:51;;;;;;;8.80;3.10;;;;;15.40;97361.00;;;;108783;1268;41165;-66
2022/05/31 00:07:21;;;;;;;8.70;2.50;;;;;15.30;97358.20;;;;108753;1270;41746;-69
2022/05/31 00:09:51;;;;;;;;;;;;;15.30;97358.80;;;;109014;1267;41188;-69
2022/05/31 00:12:21;;;;;;;7.50;2.90;;;;;15.22;97362.20;;;;108955;1268;41295;-68
2022/05/31 00:14:52;;;;;;;8.00;3.50;;;;;15.20;97368.60;;;;108998;1268;41397;-68
2022/05/31 00:17:22;;;;;;;8.50;3.40;;;;;15.20;97371.20;;;;108977;1266;41871;-67
2022/05/31 00:19:53;;;;;;;;;;;;;15.20;97375.60;;;;108938;1268;41543;-68
2022/05/31 00:22:25;;;;;;;7.70;2.70;;;;;15.10;97370.80;;;;108943;1268;41228;-69
2022/05/31 00:24:56;;;;;;;8.70;2.70;;;;;15.10;97372.60;;;;108923;1268;41208;-68
2022/05/31 00:27:28;;;;;;;9.20;2.90;;;;;15.10;97378.60;;;;108884;1268;41273;-69
2022/05/31 00:29:58;;;;;;;6.20;2.50;;;;;15.10;97381.80;;;;108792;1267;41169;-68
2022/05/31 00:32:30;;;;;;;;;;;;;15.10;97384.80;;;;108826;1267;41749;-68
2022/05/31 00:35:06;;;;;;;6.90;3.40;;;;;15.10;97391.40;;;;108922;1267;41167;-67
2022/05/31 00:37:36;;;;;;;7.80;2.90;;;;;15.10;97390.60;;;;108868;1267;42257;-68
2022/05/31 00:40:08;;;;;;;8.20;3.50;;;;;15.10;97393.20;;;;108823;1268;41263;-68
2022/05/31 00:42:54;;;;;;;8.40;3.30;;;;;15.10;97398.60;;;;108883;1268;41174;-68
2022/05/31 00:45:33;;;;;;;9.60;3.50;;;;;15.00;97396.80;;;;108915;1267;41282;-69
2022/05/31 00:48:08;;;;;;;9.50;3.70;;;;;14.98;97384.80;;;;108708;1268;41850;-67
2022/05/31 00:50:47;;;;;;;7.60;3.20;;;;;14.98;97392.20;;;;108844;1267;41641;-68
2022/05/31 00:53:41;;;;;;;8.60;2.90;;;;;15.00;97388.20;;;;108920;1267;41206;-68
2022/05/31 00:56:21;;;;;;;7.20;2.80;;;;;15.00;97391.80;;;;108904;1267;41221;-68
2022/05/31 00:59:08;;;;;;;6.00;2.40;;;;;15.00;97385.20;;;;108758;1267;41289;-68
2022/05/31 01:01:40;;;;;;;5.90;2.50;;;;;15.00;97388.00;;;;108805;1269;41184;-67
2022/05/31 01:04:11;;;;;;;9.40;4.00;;;;;15.00;97387.60;;;;108910;1267;41158;-67
2022/05/31 01:06:42;;;;;;;8.70;3.50;;;;;15.00;97394.40;;;;108807;1270;41176;-67
2022/05/31 01:09:15;;;;;;;7.10;2.70;;;;;15.00;97394.40;;;;108722;1268;42108;-66
2022/05/31 01:11:46;;;;;;;7.30;2.70;;;;;15.00;97397.20;;;;108879;1267;41279;-69
2022/05/31 01:14:30;;;;;;;8.70;3.00;;;;;15.00;97386.60;;;;108905;1267;41167;-69
2022/05/31 01:17:29;;;;;;;8.70;3.70;;;;;14.88;97386.80;;;;108861;1267;41282;-69
2022/05/31 01:20:29;;;;;;;7.80;3.40;;;;;14.70;97387.00;;;;108885;1267;41212;-68
2022/05/31 01:23:16;;;;;;;7.10;2.90;;;;;14.70;97386.00;;;;108827;1268;41418;-68
2022/05/31 01:26:25;;;;;;;6.40;2.80;;;;;14.60;97384.40;;;;108809;1267;42032;-68
2022/05/31 01:29:02;;;;;;;11.00;3.40;;;;;14.60;97382.20;;;;108279;1276;41186;-68
2022/05/31 01:31:40;;;;;;;8.60;4.00;;;;;14.50;97377.80;;;;108247;1276;41303;-67
2022/05/31 01:34:22;;;;;;;14.10;3.90;;;;;14.46;97378.60;;;;108251;1276;41198;-67
2022/05/31 01:36:55;;;;;;;8.00;3.60;;;;;14.30;97384.20;;;;108236;1276;41180;-67
2022/05/31 01:39:34;;;;;;;10.50;4.20;;;;;14.30;97386.20;;;;108244;1276;41728;-67
2022/05/31 01:42:26;;;;;;;9.90;4.60;;;;;14.20;97386.80;;;;108262;1276;41301;-68
2022/05/31 01:45:03;;;;;;;10.90;4.30;;;;;14.10;97390.60;;;;108302;1276;42186;-67
2022/05/31 01:47:37;;;;;;;7.80;3.80;;;;;14.10;97390.20;;;;108323;1276;41198;-67
2022/05/31 01:50:13;;;;;;;8.20;3.20;;;;;14.10;97394.40;;;;108434;1277;41171;-68
2022/05/31 01:52:45;;;;;;;7.20;3.30;;;;;14.10;97397.20;;;;108339;1276;41187;-68
2022/05/31 01:55:17;;;;;;;9.30;3.60;;;;;14.10;97405.60;;;;108272;1276;41358;-67
2022/05/31 01:57:57;;;;;;;9.90;3.80;;;;;14.00;97407.20;;;;108253;1276;41642;-68
2022/05/31 02:00:28;;;;;;;11.20;4.20;;;;;14.00;97412.40;;;;108409;1270;42415;-68
2022/05/31 02:03:01;;;;;;;8.50;3.60;;;;;13.90;97412.00;;;;108805;1270;41175;-68
2022/05/31 02:05:34;;;;;;;8.60;2.70;;;;;13.90;97416.00;;;;108737;1270;41167;-68
2022/05/31 02:08:07;;;;;;;8.30;3.20;;;;;13.90;97418.00;;;;108942;1270;42028;-68
2022/05/31 02:10:39;;;;;;;8.30;3.00;;;;;13.90;97416.20;;;;108797;1270;41219;-68
2022/05/31 02:13:09;;;;;;;9.20;3.20;;;;;13.90;97417.20;;;;108775;1269;41276;-67
2022/05/31 02:15:49;;;;;;;6.70;2.80;;;;;13.90;97415.80;;;;108767;1269;41535;-67
2022/05/31 02:19:15;;;;;;;8.60;3.30;;;;;13.80;97424.40;;;;108847;1269;41864;-67
2022/05/31 02:21:38;;;;;;;7.50;2.90;;;;;13.80;97429.00;;;;108806;1270;41286;-67
2022/05/31 02:24:11;;;;;;;8.70;3.30;;;;;13.70;97431.20;;;;108818;1270;41561;-67
2022/05/31 02:26:44;;;;;;;9.60;3.50;;;;;13.70;97431.60;;;;108810;1270;42097;-68
2022/05/31 02:29:21;;;;;;;9.30;3.70;;;;;13.70;97430.20;;;;108805;1270;41179;-69
2022/05/31 02:31:54;;;;;;;6.30;2.90;;;;;13.70;97432.00;;;;108820;1269;41238;-67
2022/05/31 02:34:27;;;;;;;6.80;2.80;;;;;13.70;97429.80;;;;108745;1270;41183;-68
2022/05/31 02:36:58;;;;;;;6.60;2.70;;;;;13.70;97429.00;;;;108805;1268;42496;-68
2022/05/31 02:39:29;;;;;;;5.50;2.50;;;;;13.68;97432.20;;;;108731;1270;41764;-67
2022/05/31 02:42:01;;;;;;;6.80;3.10;;;;;13.60;97433.00;;;;108740;1270;41196;-67
2022/05/31 02:44:33;;;;;;;8.00;3.30;;;;;13.62;97429.20;;;;108797;1270;41624;-67
2022/05/31 02:47:02;;;;;;;;;;;;;13.60;97428.80;;;;108799;1269;41954;-67
2022/05/31 02:49:33;;;;;;;8.10;3.70;;;;;13.62;97428.60;;;;108854;1270;41289;-67
2022/05/31 02:52:04;;;;;;;9.40;3.20;;;;;13.70;97436.80;;;;108757;1270;41561;-67
2022/05/31 02:54:34;;;;;;;7.20;2.90;;;;;13.70;97441.40;;;;108751;1270;41280;-67
2022/05/31 02:57:23;;;;;;;9.40;3.10;;;;;13.60;97450.20;;;;108791;1270;41619;-67
2022/05/31 03:00:15;;;;;;;8.90;3.30;;;;;13.60;97449.80;;;;108674;1271;41495;-67
2022/05/31 03:03:03;;;;;;;7.90;3.20;;;;;13.60;97465.00;;;;108771;1270;41278;-67
2022/05/31 03:05:57;;;;;;;9.00;2.70;;;;;13.60;97472.60;;;;108825;1270;41297;-67
2022/05/31 03:08:51;;;;;;;7.30;2.70;;;;;13.58;97473.20;;;;108762;1269;41533;-67
2022/05/31 03:12:00;;;;;;;7.60;3.20;;;;;13.60;97477.00;;;;108766;1270;42090;-67
2022/05/31 03:14:31;;;;;;;;;;;;;13.62;97479.80;;;;108777;1270;42402;-68
2022/05/31 03:17:11;;;;;;;7.50;3.40;;;;;13.70;97482.40;;;;108752;1270;41520;-68
2022/05/31 03:19:49;;;;;;;7.00;3.00;;;;;13.70;97485.20;;;;108803;1270;41412;-68
2022/05/31 03:22:24;;;;;;;9.50;3.00;;;;;13.80;97485.00;;;;108832;1270;41643;-66
2022/05/31 03:25:03;;;;;;;6.10;2.70;;;;;13.86;97484.40;;;;108817;1269;41380;-67
2022/05/31 03:27:32;;;;;;;6.30;2.40;;;;;13.90;97488.20;;;;108804;1270;41610;-67
2022/05/31 03:30:03;;;;;;;12.80;2.90;;;;;13.96;97485.80;;;;108788;1270;41709;-67
2022/05/31 03:32:35;;;;;;;7.30;3.10;;;;;14.00;97478.80;;;;108803;1270;41409;-68
2022/05/31 03:35:06;;;;;;;9.10;3.60;;;;;14.00;97478.00;;;;108842;1270;41299;-68
2022/05/31 03:37:36;;;;;;;10.20;4.10;;;;;13.90;97477.40;;;;108835;1270;41195;-68
2022/05/31 03:40:56;;;;;;;9.30;3.60;;;;;14.00;97478.40;;;;108940;1268;41303;-67
2022/05/31 03:43:06;;;;;;;7.10;3.20;;;;;14.10;97480.80;;;;108821;1268;41171;-67
2022/05/31 03:45:39;;;;;;;7.50;2.70;;;;;14.20;97482.80;;;;108823;1270;41895;-68
2022/05/31 03:48:41;;;;;;;7.80;3.20;;;;;14.40;97477.20;;;;108638;1268;41896;-68
2022/05/31 03:51:12;;;;;;;10.30;3.70;;;;;14.50;97475.60;;;;109002;1267;41646;-67
2022/05/31 03:53:42;;;;;;;11.20;4.30;;;;;14.60;97473.20;;;;108777;1268;41201;-68
2022/05/31 03:56:13;;;;;;;10.00;4.70;;;;;14.74;97476.20;;;;108826;1270;41922;-69
2022/05/31 03:58:44;;;;;;;10.20;3.60;;;;;14.90;97480.00;;;;109030;1268;41741;-67
2022/05/31 04:01:21;;;;;;;8.40;3.20;;;;;15.00;97484.80;;;;108781;1270;41205;-67
2022/05/31 04:03:52;;;;;;;8.10;3.20;;;;;15.20;97486.80;;;;108814;1270;41214;-69
2022/05/31 04:06:22;;;;;;;7.90;3.00;;;;;15.30;97492.40;;;;108712;1268;42495;-67
2022/05/31 04:08:53;;;;;;;7.10;3.00;;;;;15.50;97491.40;;;;108924;1268;41287;-67
2022/05/31 04:11:24;;;;;;;11.60;3.60;;;;;15.70;97494.00;;;;108859;1270;42102;-68
2022/05/31 04:13:57;;;;;;;8.00;3.50;;;;;16.24;97496.00;;;;108892;1268;41312;-68
2022/05/31 04:16:45;;;;;;;11.10;3.90;;;;;17.20;97487.80;;;;108823;1268;41946;-69
2022/05/31 04:19:15;;;;;;;8.20;3.80;;;;;17.48;97500.40;;;;108966;1269;41183;-68
2022/05/31 04:21:44;;;;;;;11.00;4.10;;;;;17.62;97501.00;;;;108922;1268;41181;-68
2022/05/31 04:24:13;;;;;;;9.50;3.80;;;;;17.48;97508.80;;;;108764;1270;41428;-68
2022/05/31 04:27:01;;;;;;;8.30;3.40;;;;;17.30;97508.00;;;;109036;1267;42453;-67
2022/05/31 04:29:40;;;;;;;8.40;3.20;;;;;17.66;97492.60;;;;108945;1267;41701;-67
2022/05/31 04:32:16;;;;;;;7.40;3.40;;;;;18.36;97486.40;;;;108946;1268;41674;-68
2022/05/31 04:34:54;;;;;;;7.20;3.00;;;;;19.18;97483.00;;;;108867;1270;41310;-68
2022/05/31 04:37:24;;;;;;;7.30;3.10;;;;;19.82;97480.00;;;;108796;1269;41696;-68
2022/05/31 04:39:56;;;;;;;7.00;3.20;;;;;20.44;97477.00;;;;108862;1266;41221;-65
2022/05/31 04:42:42;;;;;;;7.50;3.10;;;;;21.16;97473.60;;;;108851;1267;41719;-68
2022/05/31 04:45:30;;;;;;;6.40;2.80;;;;;21.82;97472.80;;;;108986;1267;42597;-67
2022/05/31 04:48:15;;;;;;;8.00;3.30;;;;;22.40;97480.00;;;;108781;1268;42606;-68
2022/05/31 04:50:45;;;;;;;9.10;3.30;;;;;22.74;97483.20;;;;109056;1267;41293;-66
2022/05/31 04:53:16;;;;;;;10.70;3.90;;;;;22.82;97491.40;;;;108881;1270;41177;-67
2022/05/31 04:56:09;;;;;;;7.20;3.10;;;;;22.70;97493.40;;;;108734;1270;41354;-67
2022/05/31 04:58:39;;;;;;;8.40;3.30;;;;;22.42;97494.60;;;;108788;1270;41184;-67
2022/05/31 05:01:09;;;;;;;7.90;2.90;;;;;22.30;97490.20;;;;109011;1267;41539;-66
2022/05/31 05:03:47;;;;;;;10.00;3.30;;;;;22.70;97486.80;;;;108883;1267;41178;-69
2022/05/31 05:06:18;;;;;;;8.80;3.80;;;;;22.70;97491.80;;;;108897;1267;41186;-67
2022/05/31 05:08:52;;;;;;;11.80;4.30;;;;;22.24;97497.00;;;;108892;1267;41272;-68
2022/05/31 05:11:22;;;;;;;8.40;3.20;;;;;21.52;97501.00;;;;108856;1270;41226;-68
2022/05/31 05:14:13;;;;;;;10.00;3.50;;;;;21.00;97500.40;;;;108783;1268;41197;-68
2022/05/31 05:16:54;;;;;;;7.70;3.10;;;;;21.20;97500.00;;;;108717;1268;42178;-68
2022/05/31 05:19:25;;;;;;;7.60;2.90;;;;;21.44;97482.80;;;;108929;1270;41950;-68
2022/05/31 05:22:00;;;;;;;8.90;3.40;;;;;22.00;97496.20;;;;108853;1267;41624;-68
2022/05/31 05:24:30;;;;;;;8.30;3.30;;;;;22.42;97479.40;;;;108780;1270;41168;-68
2022/05/31 05:27:25;;;;;;;7.90;3.00;;;;;22.80;97482.80;;;;108863;1267;41292;-68
2022/05/31 05:33:21;;;;;;;8.80;3.70;;;;;22.58;97512.40;;;;108574;1270;41750;-67
2022/05/31 05:36:15;;;;;;;11.00;3.80;;;;;22.08;97515.80;;;;108876;1267;41280;-68
2022/05/31 05:38:46;;;;;;;10.50;4.30;;;;;21.62;97520.40;;;;108808;1269;41288;-68
2022/05/31 05:41:34;;;;;;;8.40;3.50;;;;;21.22;97520.40;;;;108973;1269;41285;-68
2022/05/31 05:44:35;;;;;;;10.00;3.50;;;;;21.20;97523.40;;;;108714;1270;41193;-68
2022/05/31 05:47:09;;;;;;;8.10;3.40;;;;;21.52;97507.00;;;;109028;1267;41170;-68
2022/05/31 05:49:38;;;;;;;9.80;3.70;;;;;22.38;97494.80;;;;108699;1268;41287;-67
2022/05/31 05:52:27;;;;;;;9.60;3.90;;;;;23.40;97493.60;;;;108805;1270;41283;-68
2022/05/31 05:55:17;;;;;;;9.20;4.00;;;;;24.12;97488.40;;;;108879;1270;41257;-66
2022/05/31 05:58:08;;;;;;;9.10;4.20;;;;;24.94;97493.80;;;;108888;1267;41232;-67
2022/05/31 06:00:56;;;;;;;9.40;4.10;;;;;25.16;97490.60;;;;109013;1267;42600;-68
2022/05/31 06:03:37;;;;;;;13.60;4.10;;;;;25.50;97497.00;;;;108937;1270;42037;-67
2022/05/31 06:06:08;;;;;;;9.80;4.60;;;;;25.70;97497.60;;;;109037;1268;41243;-68
2022/05/31 06:08:52;;;;;;;8.60;4.00;;;;;25.36;97495.40;;;;108919;1268;41167;-68
2022/05/31 06:11:27;;;;;;;10.20;3.90;;;;;25.50;97494.80;;;;109028;1267;41287;-68
2022/05/31 06:14:07;;;;;;;11.00;3.70;;;;;25.90;97496.20;;;;108903;1270;41414;-68
2022/05/31 06:16:41;;;;;;;10.50;4.20;;;;;26.70;97496.00;;;;108878;1270;42030;-68
2022/05/31 06:19:33;;;;;;;9.30;4.00;;;;;27.20;97496.60;;;;108842;1270;42020;-67
2022/05/31 06:22:04;;;;;;;8.60;3.60;;;;;27.30;97495.00;;;;109061;1268;41189;-67
2022/05/31 06:24:40;;;;;;;10.00;3.80;;;;;27.62;97495.00;;;;108743;1269;42411;-68
2022/05/31 06:27:28;;;;;;;7.10;3.00;;;;;27.20;97495.00;;;;108406;1270;458903;-71
2022/05/31 06:29:57;;;;;;;8.10;3.60;;;;;27.50;97496.00;;;;108923;1270;41184;-66
2022/05/31 06:32:27;;;;;;;8.80;3.30;;;;;27.90;97491.40;;;;108607;1270;41707;-66
2022/05/31 06:34:57;;;;;;;8.40;3.70;;;;;28.10;97496.00;;;;108779;1270;41178;-67
2022/05/31 06:37:35;;;;;;;9.80;3.60;;;;;28.50;97494.40;;;;108825;1270;41219;-67
2022/05/31 06:40:08;;;;;;;10.40;4.10;;;;;28.30;97493.60;;;;108760;1270;42108;-65
2022/05/31 06:42:58;;;;;;;9.50;4.00;;;;;28.30;97495.80;;;;108818;1270;41276;-66
2022/05/31 06:45:47;;;;;;;7.80;3.10;;;;;28.10;97502.20;;;;108934;1267;41494;-67
2022/05/31 06:48:35;;;;;;;8.20;3.90;;;;;28.74;97501.40;;;;108935;1268;41177;-66
2022/05/31 06:56:48;;;;;;;9.60;3.40;;;;;29.00;97503.20;;;;108917;1267;41210;-67
2022/05/31 06:57:47;;;;;;;13.50;4.40;;;;;27.94;97504.20;;;;108768;1270;41813;-66
2022/05/31 07:00:37;;;;;;;8.90;4.20;;;;;27.60;97505.60;;;;108959;1270;42568;-66
2022/05/31 07:03:12;;;;;;;12.50;4.00;;;;;27.80;97506.20;;;;108828;1270;41153;-67
2022/05/31 07:05:41;;;;;;;8.50;3.30;;;;;27.60;97509.40;;;;108802;1267;41295;-66
2022/05/31 07:08:19;;;;;;;8.90;3.10;;;;;28.00;97513.60;;;;108911;1267;41307;-67
2022/05/31 07:11:01;;;;;;;10.90;4.10;;;;;28.26;97515.40;;;;108877;1267;41281;-66
2022/05/31 07:13:49;;;;;;;11.30;4.20;;;;;28.02;97507.20;;;;108853;1270;41893;-66
2022/05/31 07:16:44;;;;;;;12.20;4.80;;;;;27.26;97510.00;;;;108823;1268;41393;-65
2022/05/31 07:19:28;;;;;;;10.40;4.00;;;;;26.00;97511.00;;;;108874;1267;42394;-66
2022/05/31 07:22:18;;;;;;;10.50;4.70;;;;;26.04;97516.40;;;;108977;1270;41746;-66
2022/05/31 07:24:49;;;;;;;10.30;4.30;;;;;26.10;97518.80;;;;108846;1270;41217;-67
2022/05/31 07:27:33;;;;;;;9.20;3.70;;;;;26.40;97519.60;;;;108823;1269;41894;-66
2022/05/31 07:30:05;;;;;;;9.70;3.70;;;;;26.70;97520.00;;;;108727;1269;41679;-67
2022/05/31 07:32:35;;;;;;;11.30;4.10;;;;;26.90;97517.40;;;;108801;1268;41187;-67
2022/05/31 07:35:25;;;;;;;9.50;4.20;;;;;27.00;97520.20;;;;108831;1270;41280;-67
2022/05/31 07:37:54;;;;;;;8.10;3.40;;;;;27.10;97521.60;;;;108832;1270;41165;-68
2022/05/31 07:40:25;;;;;;;8.30;3.60;;;;;27.20;97521.20;;;;108598;1272;41172;-68
2022/05/31 07:42:54;;;;;;;13.50;3.90;;;;;27.20;97521.40;;;;108725;1270;41601;-68
2022/05/31 07:45:28;;;;;;;8.80;3.70;;;;;27.30;97520.20;;;;108759;1270;41325;-68
2022/05/31 07:47:58;;;;;;;10.30;3.90;;;;;27.50;97521.00;;;;108779;1270;41162;-68
2022/05/31 07:50:28;;;;;;;10.10;4.30;;;;;27.70;97512.80;;;;108735;1270;41198;-68
2022/05/31 07:53:23;;;;;;;9.30;3.80;;;;;27.70;97515.00;;;;108628;1270;41285;-66
2022/05/31 07:56:16;;;;;;;8.00;3.50;;;;;27.80;97516.40;;;;108608;1270;41740;-66
2022/05/31 07:59:05;;;;;;;10.70;4.10;;;;;27.76;97519.60;;;;108791;1270;42497;-67
2022/05/31 08:01:41;;;;;;;7.30;3.20;;;;;27.66;97524.20;;;;108887;1270;41327;-67
2022/05/31 08:04:19;;;;;;;7.90;2.80;;;;;27.80;97523.60;;;;108752;1270;41746;-66
2022/05/31 08:06:49;;;;;;;7.60;3.10;;;;;27.90;97528.20;;;;108865;1270;41329;-67
2022/05/31 08:09:21;;;;;;;9.30;3.20;;;;;28.10;97527.60;;;;108846;1270;41181;-68
2022/05/31 08:11:50;;;;;;;9.60;3.00;;;;;28.30;97531.40;;;;108775;1270;41181;-67
2022/05/31 08:14:25;;;;;;;7.40;3.00;;;;;28.60;97534.40;;;;108752;1271;41662;-67
2022/05/31 08:16:54;;;;;;;7.40;2.90;;;;;29.00;97531.80;;;;108748;1270;41630;-67
2022/05/31 08:19:24;;;;;;;10.00;2.90;;;;;29.28;97532.60;;;;108791;1270;41159;-67
2022/05/31 08:21:53;;;;;;;6.40;2.40;;;;;29.40;97535.60;;;;108854;1270;41194;-67
2022/05/31 08:24:23;;;;;;;9.20;2.50;;;;;29.50;97534.40;;;;108935;1270;41307;-68
2022/05/31 08:27:13;;;;;;;8.70;2.80;;;;;29.70;97528.80;;;;109025;1269;41613;-67
2022/05/31 08:29:42;;;;;;;6.90;2.30;;;;;29.68;97527.80;;;;108967;1268;41632;-68
2022/05/31 08:32:11;;;;;;;9.00;2.50;;;;;29.66;97526.60;;;;108913;1270;41973;-67
2022/05/31 08:34:41;;;;;;;7.30;2.70;;;;;29.68;97524.40;;;;108858;1270;41684;-67
2022/05/31 08:37:10;;;;;;;6.70;2.60;;;;;29.80;97525.00;;;;109045;1270;41586;-68
2022/05/31 08:39:39;;;;;;;5.50;2.40;;;;;29.90;97523.00;;;;108986;1267;41687;-67
2022/05/31 08:42:13;;;;;;;7.30;2.80;;;;;30.00;97522.60;;;;109069;1267;41284;-66
2022/05/31 08:45:12;;;;;;;8.30;2.60;;;;;29.58;97520.00;;;;109001;1270;41427;-67
2022/05/31 08:47:45;;;;;;;6.10;2.50;;;;;29.60;97515.00;;;;109097;1269;41976;-68
2022/05/31 08:53:26;;;;;;;8.10;2.60;;;;;30.00;97520.60;;;;109089;1267;41223;-68
2022/05/31 08:58:55;;;;;;;6.90;2.10;;;;;30.48;97522.00;;;;108794;1269;41157;-68
2022/05/31 09:01:29;;;;;;;6.30;2.30;;;;;30.90;97517.80;;;;109132;1270;41193;-68
2022/05/31 09:04:04;;;;;;;8.30;2.70;;;;;30.28;97517.80;;;;108709;1272;41182;-67
2022/05/31 09:06:58;;;;;;;6.50;2.40;;;;;29.18;97522.60;;;;108890;1269;41281;-67
2022/05/31 09:09:46;;;;;;;7.20;2.30;;;;;28.50;97528.80;;;;108928;1270;41943;-67
2022/05/31 09:12:40;;;;;;;6.40;2.40;;;;;28.70;97529.40;;;;108758;1270;41209;-68
2022/05/31 09:15:30;;;;;;;6.80;2.30;;;;;28.90;97532.20;;;;109086;1268;41378;-68
2022/05/31 09:18:10;;;;;;;5.50;1.90;;;;;29.18;97528.40;;;;108999;1270;41267;-68
2022/05/31 09:20:57;;;;;;;5.50;2.20;;;;;30.12;97527.20;;;;109110;1269;41288;-68
2022/05/31 09:23:28;;;;;;;4.00;1.90;;;;;31.38;97519.80;;;;108836;1270;41641;-68
2022/05/31 09:26:09;;;;;;;6.50;2.30;;;;;32.86;97512.60;;;;108821;1271;41193;-68
2022/05/31 09:29:00;;;;;;;4.70;2.10;;;;;33.18;97515.00;;;;108989;1270;41172;-68
2022/05/31 09:31:38;;;;;;;9.30;2.10;;;;;32.20;97531.00;;;;108890;1270;41644;-69
2022/05/31 09:34:50;;;;;;;5.80;2.20;;;;;31.76;97529.80;;;;109110;1270;42538;-69
2022/05/31 09:37:45;;;;;;;8.90;2.50;;;;;31.40;97529.40;;;;108615;1270;41650;-69
2022/05/31 09:40:33;;;;;;;6.70;2.50;;;;;31.10;97529.60;;;;109027;1267;41760;-68
2022/05/31 09:43:23;;;;;;;5.70;2.20;;;;;30.90;97532.40;;;;108808;1270;41178;-68
2022/05/31 09:45:58;;;;;;;;;;;;;30.60;97534.60;;;;109088;1267;40776;-68
2022/05/31 09:48:27;;;;;;;8.20;2.00;;;;;30.50;97531.20;;;;109014;1270;41157;-68
2022/05/31 09:51:39;;;;;;;4.40;1.90;;;;;30.48;97532.20;;;;109084;1270;41282;-68
2022/05/31 09:57:22;;;;;;;5.00;2.00;;;;;30.60;97529.00;;;;108559;1276;41760;-68
2022/05/31 10:00:13;;;;;;;5.80;2.10;;;;;30.30;97529.40;;;;108394;1275;41181;-67
2022/05/31 10:03:02;;;;;;;8.50;2.40;;;;;30.76;97525.40;;;;108442;1275;41207;-67
2022/05/31 10:05:32;;;;;;;5.70;2.10;;;;;30.36;97525.40;;;;108463;1273;41280;-68
2022/05/31 10:08:03;;;;;;;5.40;2.20;;;;;30.60;97522.20;;;;108600;1276;41808;-68
2022/05/31 10:10:35;;;;;;;5.40;2.20;;;;;30.92;97524.60;;;;108608;1273;41908;-68
2022/05/31 10:13:09;;;;;;;7.00;2.00;;;;;31.10;97524.00;;;;108502;1276;41387;-68
2022/05/31 10:15:44;;;;;;;7.40;2.30;;;;;31.30;97522.40;;;;108579;1276;41184;-67
2022/05/31 10:18:33;;;;;;;5.60;1.90;;;;;31.58;97518.00;;;;108610;1273;41300;-69
2022/05/31 10:21:05;;;;;;;5.60;2.00;;;;;32.20;97521.60;;;;108609;1273;41391;-68
2022/05/31 10:23:44;;;;;;;5.70;2.20;;;;;32.30;97521.40;;;;108619;1273;41756;-68
2022/05/31 10:26:40;;;;;;;6.20;2.20;;;;;32.40;97506.80;;;;108360;1276;41181;-67
2022/05/31 10:29:29;;;;;;;7.20;2.50;;;;;32.70;97502.60;;;;108609;1270;41201;-69
2022/05/31 10:32:48;;;;;;;5.70;2.00;;;;;32.56;97502.80;;;;108905;1269;41310;-69
2022/05/31 10:35:24;;;;;;;6.30;2.10;;;;;32.58;97500.60;;;;108880;1268;41302;-69
2022/05/31 10:37:58;;;;;;;6.40;2.10;;;;;32.80;97497.00;;;;108748;1270;41214;-67
2022/05/31 10:40:52;;;;;;;3.60;1.70;;;;;32.80;97492.20;;;;109078;1268;41263;-68
2022/05/31 10:43:35;;;;;;;6.40;1.80;;;;;32.88;97492.00;;;;108957;1270;41295;-68
2022/05/31 10:46:29;;;;;;;4.90;1.70;;;;;32.82;97487.40;;;;108991;1267;41297;-68
2022/05/31 10:49:03;;;;;;;3.30;1.60;;;;;32.84;97484.00;;;;109005;1267;41432;-68
2022/05/31 10:51:40;;;;;;;5.90;1.70;;;;;32.90;97486.80;;;;108970;1267;41616;-69
2022/05/31 10:54:40;;;;;;;4.50;1.90;;;;;33.16;97485.60;;;;108976;1270;41635;-68
2022/05/31 10:57:24;;;;;;;4.70;1.80;;;;;33.44;97481.00;;;;108724;1267;41643;-68
2022/05/31 10:59:55;;;;;;;3.90;1.70;;;;;33.60;97482.00;;;;108932;1270;41173;-68
2022/05/31 11:02:36;;;;;;;5.30;1.70;;;;;33.92;97476.80;;;;109031;1268;41161;-68
2022/05/31 11:05:11;;;;;;;5.10;1.70;;;;;34.58;97467.20;;;;108930;1267;41282;-68
2022/05/31 11:11:28;;;;;;;5.10;1.70;;;;;35.48;97462.40;;;;109030;1269;41200;-68
2022/05/31 11:11:29;;;;;;;3.90;1.50;;;;;36.66;97449.60;;;;108977;1268;41167;-68
2022/05/31 11:14:07;;;;;;;5.40;1.80;;;;;37.60;97447.40;;;;108589;1273;41629;-68
2022/05/31 11:16:48;;;;;;;5.30;1.70;;;;;38.50;97445.80;;;;108622;1273;41203;-69
2022/05/31 11:19:33;;;;;;;4.30;1.50;;;;;39.22;97439.40;;;;108533;1276;41201;-69
2022/05/31 11:22:29;;;;;;;4.50;1.70;;;;;39.18;97452.00;;;;108416;1275;42430;-68
2022/05/31 11:25:19;;;;;;;4.30;1.70;;;;;38.34;97460.00;;;;108574;1273;41777;-68
2022/05/31 11:28:15;;;;;;;5.50;2.00;;;;;36.96;97451.60;;;;108434;1276;41661;-69
2022/05/31 11:31:10;;;;;;;4.80;1.80;;;;;35.86;97454.40;;;;108477;1276;41333;-70
2022/05/31 11:33:57;;;;;;;4.60;1.70;;;;;33.58;97452.40;;;;108557;1276;41188;-69
2022/05/31 11:36:54;;;;;;;5.90;2.00;;;;;33.90;97447.20;;;;108574;1276;41235;-68
2022/05/31 11:39:47;;;;;;;6.90;1.80;;;;;34.70;97442.20;;;;108610;1276;41323;-69
2022/05/31 11:42:34;;;;;;;4.80;1.70;;;;;35.30;97441.80;;;;108541;1276;41650;-68
2022/05/31 11:45:24;;;;;;;5.10;1.60;;;;;34.66;97437.60;;;;108548;1276;41193;-69
2022/05/31 11:47:57;;;;;;;;;;;;;34.02;97438.60;;;;108565;1276;41650;-69
2022/05/31 11:50:48;;;;;;;4.10;1.80;;;;;33.40;97437.60;;;;108684;1270;42320;-69
2022/05/31 11:53:38;;;;;;;3.10;1.40;;;;;33.10;97441.60;;;;108948;1270;42425;-70
2022/05/31 11:56:06;;;;;;;;;;;;;32.72;97442.00;;;;108972;1269;41174;-69
2022/05/31 11:58:42;;;;;;;6.80;1.80;;;;;32.24;97439.40;;;;109011;1268;41652;-68
2022/05/31 12:01:31;;;;;;;4.40;1.90;;;;;32.22;97442.20;;;;108959;1267;41844;-69
2022/05/31 12:04:19;;;;;;;5.10;1.50;;;;;32.32;97441.20;;;;108963;1267;41629;-68
2022/05/31 12:07:12;;;;;;;5.70;1.70;;;;;31.84;97440.60;;;;108964;1270;41532;-68
2022/05/31 12:09:46;;;;;;;7.40;1.80;;;;;31.56;97436.60;;;;109022;1266;41826;-69
2022/05/31 12:12:20;;;;;;;7.80;1.70;;;;;31.30;97439.00;;;;108961;1267;41180;-68
2022/05/31 12:14:53;;;;;;;3.60;1.70;;;;;31.04;97440.40;;;;109022;1267;41412;-68
2022/05/31 12:17:52;;;;;;;4.50;1.80;;;;;30.90;97442.40;;;;109153;1267;41761;-68
2022/05/31 12:20:30;;;;;;;6.20;1.70;;;;;30.90;97441.00;;;;108708;1270;41207;-69
2022/05/31 12:23:32;;;;;;;6.00;2.00;;;;;31.00;97439.40;;;;109094;1267;42191;-69
2022/05/31 12:26:04;;;;;;;3.80;1.50;;;;;31.04;97438.20;;;;109095;1267;41198;-68
2022/05/31 12:28:39;;;;;;;5.10;2.00;;;;;30.16;97439.60;;;;109031;1267;41758;-68
2022/05/31 12:31:15;;;;;;;4.50;1.80;;;;;30.00;97438.80;;;;108902;1270;41286;-68
2022/05/31 12:33:44;;;;;;;6.30;1.80;;;;;28.48;97444.20;;;;108961;1270;41186;-68
2022/05/31 12:36:19;;;;;;;4.20;1.80;;;;;28.96;97444.40;;;;109082;1267;41189;-68
2022/05/31 12:39:19;;;;;;;4.50;1.80;;;;;29.20;97449.80;;;;109091;1267;41217;-68
2022/05/31 12:41:51;;;;;;;7.20;1.70;;;;;29.40;97453.40;;;;108928;1267;42476;-69
2022/05/31 12:44:34;;;;;;;3.20;1.70;;;;;29.60;97449.00;;;;108891;1270;40788;-68
2022/05/31 12:47:09;;;;;;;4.40;1.70;;;;;29.80;97450.40;;;;109002;1267;41182;-68
2022/05/31 12:49:54;;;;;;;5.10;1.80;;;;;29.90;97445.00;;;;108984;1267;41282;-68
2022/05/31 12:55:12;;;;;;;4.70;1.90;;;;;29.90;97436.80;;;;108916;1268;40785;-70
2022/05/31 13:00:34;;;;;;;6.30;2.00;;;;;30.00;97430.60;;;;108910;1267;41569;-68
2022/05/31 13:03:05;;;;;;;3.70;1.70;;;;;30.00;97429.20;;;;108954;1267;41353;-68
2022/05/31 13:05:57;;;;;;;6.00;1.80;;;;;30.00;97427.40;;;;108986;1267;41250;-69
2022/05/31 13:08:56;;;;;;;5.30;1.80;;;;;29.90;97427.20;;;;108997;1267;41537;-67
2022/05/31 13:20:20;;;;;;;4.00;1.60;;;;;29.54;97425.40;;;;109002;1267;41628;-68
2022/05/31 13:23:17;;;;;;;5.80;1.80;;;;;29.30;97429.60;;;;109080;1267;41171;-68
2022/05/31 13:26:05;;;;;;;5.60;1.60;;;;;29.10;97432.40;;;;108900;1267;40901;-68
2022/05/31 13:28:53;;;;;;;3.50;1.60;;;;;29.00;97425.00;;;;108926;1267;41174;-67
2022/05/31 13:31:24;;;;;;;4.20;1.60;;;;;28.90;97424.20;;;;108937;1267;42258;-67
2022/05/31 13:33:57;;;;;;;5.50;1.80;;;;;28.98;97423.00;;;;109032;1267;41764;-67
2022/05/31 13:36:28;;;;;;;3.10;1.70;;;;;29.00;97419.60;;;;108969;1267;42184;-67
2022/05/31 13:39:06;;;;;;;3.60;1.60;;;;;28.90;97422.20;;;;109013;1267;41160;-67
2022/05/31 13:41:52;;;;;;;5.00;2.20;;;;;28.90;97420.40;;;;108903;1267;41173;-68